TCX47TN EGBB-LEGE
Flight info
| Callsign | TCX47TN |
|---|---|
| Flight time | 1h 35m |
| Altitude | 35000 |
| Route | CPT UN859 SOPIL DCT BALAN DCT EVPOK DCT NARAK DCT GAI DCT PPG A27 KANIG |
| Aircraft | A321/M-SDE3FGHIRWY/LB1 |
Departure
| Time | 2026-04-21 09:35 |
|---|---|
| Airport | Birmingham Airport (EGBB) |
Arrival
| Time | 2026-04-21 11:10 |
|---|---|
| Airport | Girona-Costa Brava Airport (LEGE) |
| Time | Latitude | Longitude | Altitude | Speed | Heading |
|---|---|---|---|---|---|
| 2026-04-21 08:57 | 52.45142 | -1.73438 | 324 ft | 0 kts | 141° |
| 2026-04-21 09:26 | 52.45151 | -1.73450 | 323 ft | 3 kts | 141° |
| 2026-04-21 09:26 | 52.45168 | -1.73471 | 323 ft | 4 kts | 155° |
| 2026-04-21 09:26 | 52.45192 | -1.73478 | 323 ft | 4 kts | 203° |
| 2026-04-21 09:27 | 52.45211 | -1.73453 | 323 ft | 3 kts | 236° |
| 2026-04-21 09:27 | 52.45200 | -1.73479 | 323 ft | 4 kts | 236° |
| 2026-04-21 09:27 | 52.45197 | -1.73487 | 323 ft | 0 kts | 236° |
| 2026-04-21 09:29 | 52.45183 | -1.73522 | 323 ft | 8 kts | 236° |
| 2026-04-21 09:29 | 52.45136 | -1.73634 | 323 ft | 16 kts | 236° |
| 2026-04-21 09:30 | 52.45117 | -1.73787 | 322 ft | 14 kts | 308° |
| 2026-04-21 09:30 | 52.45190 | -1.73875 | 323 ft | 13 kts | 326° |
| 2026-04-21 09:30 | 52.45266 | -1.73958 | 323 ft | 16 kts | 326° |
| 2026-04-21 09:30 | 52.45337 | -1.74122 | 323 ft | 18 kts | 296° |
| 2026-04-21 09:31 | 52.45389 | -1.74294 | 322 ft | 16 kts | 296° |
| 2026-04-21 09:31 | 52.45437 | -1.74451 | 323 ft | 16 kts | 296° |
| 2026-04-21 09:31 | 52.45508 | -1.74610 | 323 ft | 19 kts | 323° |
| 2026-04-21 09:31 | 52.45632 | -1.74748 | 317 ft | 24 kts | 326° |
| 2026-04-21 09:32 | 52.45778 | -1.74908 | 309 ft | 26 kts | 327° |
| 2026-04-21 09:32 | 52.45932 | -1.75082 | 307 ft | 27 kts | 326° |
| 2026-04-21 09:32 | 52.46087 | -1.75254 | 304 ft | 27 kts | 326° |
| 2026-04-21 09:32 | 52.46241 | -1.75424 | 306 ft | 27 kts | 326° |
| 2026-04-21 09:33 | 52.46392 | -1.75592 | 303 ft | 26 kts | 326° |
| 2026-04-21 09:33 | 52.46538 | -1.75755 | 304 ft | 24 kts | 326° |
| 2026-04-21 09:33 | 52.46629 | -1.75911 | 308 ft | 17 kts | 262° |
| 2026-04-21 09:33 | 52.46565 | -1.76068 | 307 ft | 16 kts | 212° |
| 2026-04-21 09:34 | 52.46495 | -1.76035 | 309 ft | 7 kts | 146° |
| 2026-04-21 09:34 | 52.46412 | -1.75942 | 308 ft | 41 kts | 146° |
| 2026-04-21 09:34 | 52.45963 | -1.75443 | 315 ft | 111 kts | 146° |
| 2026-04-21 09:34 | 52.45175 | -1.74558 | 337 ft | 161 kts | 145° |
| 2026-04-21 09:35 | 52.44223 | -1.73545 | 957 ft | 159 kts | 138° |
| 2026-04-21 09:35 | 52.43308 | -1.72550 | 1698 ft | 157 kts | 138° |
| 2026-04-21 09:35 | 52.42404 | -1.71532 | 2298 ft | 160 kts | 138° |
| 2026-04-21 09:35 | 52.41427 | -1.70439 | 2518 ft | 182 kts | 143° |
| 2026-04-21 09:36 | 52.40159 | -1.69715 | 2673 ft | 208 kts | 160° |
| 2026-04-21 09:36 | 52.38705 | -1.69111 | 3059 ft | 219 kts | 160° |
| 2026-04-21 09:36 | 52.37300 | -1.68188 | 3761 ft | 217 kts | 148° |
| 2026-04-21 09:36 | 52.35949 | -1.67097 | 4524 ft | 217 kts | 147° |
| 2026-04-21 09:37 | 52.34569 | -1.66027 | 5122 ft | 228 kts | 150° |
| 2026-04-21 09:37 | 52.33026 | -1.64959 | 5440 ft | 252 kts | 152° |
| 2026-04-21 09:37 | 52.31358 | -1.63865 | 6047 ft | 262 kts | 154° |
| 2026-04-21 09:37 | 52.29666 | -1.62781 | 6849 ft | 264 kts | 154° |
| 2026-04-21 09:38 | 52.27949 | -1.61666 | 7646 ft | 266 kts | 154° |
| 2026-04-21 09:38 | 52.26213 | -1.60543 | 8415 ft | 269 kts | 154° |
| 2026-04-21 09:38 | 52.24480 | -1.59436 | 9182 ft | 272 kts | 155° |
| 2026-04-21 09:38 | 52.22670 | -1.58431 | 9917 ft | 277 kts | 158° |
| 2026-04-21 09:39 | 52.20816 | -1.57501 | 10621 ft | 281 kts | 159° |
| 2026-04-21 09:39 | 52.18931 | -1.56588 | 11296 ft | 284 kts | 160° |
| 2026-04-21 09:39 | 52.17023 | -1.55667 | 11981 ft | 287 kts | 159° |
| 2026-04-21 09:39 | 52.15105 | -1.54729 | 12670 ft | 290 kts | 159° |
| 2026-04-21 09:40 | 52.13164 | -1.53768 | 13349 ft | 293 kts | 159° |
| 2026-04-21 09:40 | 52.11199 | -1.52789 | 13981 ft | 298 kts | 158° |
| 2026-04-21 09:40 | 52.09206 | -1.51776 | 14522 ft | 304 kts | 157° |
| 2026-04-21 09:40 | 52.07206 | -1.50384 | 14628 ft | 323 kts | 153° |
| 2026-04-21 09:41 | 52.05121 | -1.48748 | 14761 ft | 342 kts | 150° |
| 2026-04-21 09:41 | 52.03114 | -1.47118 | 14876 ft | 358 kts | 152° |
| 2026-04-21 09:41 | 52.01707 | -1.45868 | 14907 ft | 365 kts | 143° |
| 2026-04-21 09:41 | 51.99560 | -1.43596 | 15305 ft | 373 kts | 147° |
| 2026-04-21 09:42 | 51.97240 | -1.41628 | 15803 ft | 379 kts | 151° |
| 2026-04-21 09:42 | 51.94821 | -1.39851 | 16315 ft | 384 kts | 153° |
| 2026-04-21 09:42 | 51.92354 | -1.38123 | 16833 ft | 388 kts | 155° |
| 2026-04-21 09:42 | 51.89866 | -1.36358 | 17341 ft | 392 kts | 153° |
| 2026-04-21 09:43 | 51.87366 | -1.34511 | 17790 ft | 398 kts | 153° |
| 2026-04-21 09:43 | 51.84855 | -1.32586 | 18306 ft | 400 kts | 153° |
| 2026-04-21 09:43 | 51.82337 | -1.30598 | 18793 ft | 404 kts | 152° |
| 2026-04-21 09:43 | 51.79828 | -1.28590 | 19094 ft | 411 kts | 153° |
| 2026-04-21 09:44 | 51.77207 | -1.26486 | 19354 ft | 419 kts | 153° |
| 2026-04-21 09:44 | 51.74617 | -1.24419 | 19776 ft | 422 kts | 153° |
| 2026-04-21 09:44 | 51.71962 | -1.22316 | 20194 ft | 426 kts | 154° |
| 2026-04-21 09:44 | 51.69287 | -1.20217 | 20563 ft | 430 kts | 154° |
| 2026-04-21 09:45 | 51.66585 | -1.18110 | 20960 ft | 434 kts | 155° |
| 2026-04-21 09:45 | 51.63852 | -1.15985 | 21344 ft | 438 kts | 155° |
| 2026-04-21 09:45 | 51.61100 | -1.13846 | 21721 ft | 442 kts | 155° |
| 2026-04-21 09:45 | 51.58322 | -1.11683 | 22098 ft | 446 kts | 155° |
| 2026-04-21 09:46 | 51.55510 | -1.09491 | 22446 ft | 451 kts | 156° |
| 2026-04-21 09:46 | 51.52664 | -1.07269 | 22769 ft | 457 kts | 156° |
| 2026-04-21 09:46 | 51.49792 | -1.05034 | 23128 ft | 461 kts | 156° |
| 2026-04-21 09:46 | 51.46885 | -1.02781 | 23493 ft | 465 kts | 156° |
| 2026-04-21 09:47 | 51.43962 | -1.00521 | 23855 ft | 469 kts | 157° |
| 2026-04-21 09:47 | 51.41010 | -0.98239 | 24146 ft | 472 kts | 157° |
| 2026-04-21 09:47 | 51.38040 | -0.95944 | 24455 ft | 476 kts | 157° |
| 2026-04-21 09:47 | 51.35051 | -0.93634 | 24811 ft | 478 kts | 157° |
| 2026-04-21 09:48 | 51.32048 | -0.91317 | 25131 ft | 481 kts | 158° |
| 2026-04-21 09:48 | 51.29025 | -0.88982 | 25360 ft | 485 kts | 157° |
| 2026-04-21 09:48 | 51.26193 | -0.86792 | 25589 ft | 487 kts | 157° |
| 2026-04-21 09:48 | 51.23411 | -0.84610 | 25835 ft | 490 kts | 158° |
| 2026-04-21 09:49 | 51.20324 | -0.82238 | 26142 ft | 493 kts | 158° |
| 2026-04-21 09:49 | 51.17224 | -0.79885 | 26440 ft | 495 kts | 158° |
| 2026-04-21 09:49 | 51.14096 | -0.77526 | 26733 ft | 498 kts | 158° |
| 2026-04-21 09:49 | 51.10977 | -0.75175 | 27026 ft | 501 kts | 158° |
| 2026-04-21 09:50 | 51.07802 | -0.72773 | 27314 ft | 503 kts | 158° |
| 2026-04-21 09:50 | 51.06737 | -0.71964 | 27405 ft | 504 kts | 158° |
| 2026-04-21 09:50 | 50.98382 | -0.65601 | 28116 ft | 511 kts | 158° |
| 2026-04-21 09:51 | 50.95166 | -0.63159 | 28400 ft | 513 kts | 159° |
| 2026-04-21 09:51 | 50.91937 | -0.60718 | 28679 ft | 516 kts | 159° |
| 2026-04-21 09:51 | 50.88729 | -0.58303 | 28948 ft | 518 kts | 159° |
| 2026-04-21 09:51 | 50.85475 | -0.55853 | 29306 ft | 517 kts | 159° |
| 2026-04-21 09:52 | 50.82226 | -0.53411 | 29696 ft | 516 kts | 159° |
| 2026-04-21 09:52 | 50.78984 | -0.50973 | 30070 ft | 516 kts | 159° |
| 2026-04-21 09:52 | 50.75734 | -0.48532 | 30422 ft | 516 kts | 159° |
| 2026-04-21 09:52 | 50.72495 | -0.46102 | 30742 ft | 515 kts | 159° |
| 2026-04-21 09:53 | 50.69257 | -0.43679 | 31087 ft | 514 kts | 159° |
| 2026-04-21 09:53 | 50.66029 | -0.41268 | 31442 ft | 512 kts | 159° |
| 2026-04-21 09:53 | 50.62836 | -0.38888 | 31793 ft | 510 kts | 159° |
| 2026-04-21 09:53 | 50.59638 | -0.36503 | 32193 ft | 507 kts | 159° |
| 2026-04-21 09:54 | 50.56452 | -0.34131 | 32573 ft | 505 kts | 159° |
| 2026-04-21 09:54 | 50.53277 | -0.31773 | 32943 ft | 503 kts | 159° |
| 2026-04-21 09:54 | 50.50108 | -0.29423 | 33306 ft | 502 kts | 159° |
| 2026-04-21 09:54 | 50.46959 | -0.27086 | 33671 ft | 500 kts | 159° |
| 2026-04-21 09:55 | 50.43812 | -0.24762 | 34025 ft | 499 kts | 159° |
| 2026-04-21 09:55 | 50.40714 | -0.22482 | 34339 ft | 497 kts | 159° |
| 2026-04-21 09:55 | 50.37594 | -0.20186 | 34660 ft | 495 kts | 159° |
| 2026-04-21 09:55 | 50.34482 | -0.17890 | 34953 ft | 493 kts | 159° |
| 2026-04-21 09:56 | 50.31379 | -0.15602 | 35195 ft | 492 kts | 159° |
| 2026-04-21 09:56 | 50.28286 | -0.13328 | 35261 ft | 490 kts | 159° |
| 2026-04-21 09:56 | 50.22120 | -0.08831 | 35269 ft | 488 kts | 159° |
| 2026-04-21 09:57 | 50.15969 | -0.04358 | 35266 ft | 486 kts | 159° |
| 2026-04-21 09:57 | 50.09801 | -0.00067 | 35279 ft | 483 kts | 166° |
| 2026-04-21 09:58 | 50.03340 | 0.02630 | 35270 ft | 481 kts | 171° |
| 2026-04-21 09:58 | 49.96888 | 0.05168 | 35235 ft | 481 kts | 171° |
| 2026-04-21 09:59 | 49.90398 | 0.07712 | 35249 ft | 480 kts | 171° |
| 2026-04-21 09:59 | 49.83922 | 0.10241 | 35247 ft | 480 kts | 171° |
| 2026-04-21 10:00 | 49.77442 | 0.12777 | 35244 ft | 480 kts | 171° |
| 2026-04-21 10:00 | 49.70972 | 0.15301 | 35238 ft | 479 kts | 171° |
| 2026-04-21 10:01 | 49.64508 | 0.17834 | 35250 ft | 479 kts | 170° |
| 2026-04-21 10:01 | 49.58052 | 0.20435 | 35250 ft | 479 kts | 170° |
| 2026-04-21 10:02 | 49.48380 | 0.24369 | 35235 ft | 479 kts | 169° |
| 2026-04-21 10:03 | 49.41970 | 0.26953 | 35223 ft | 479 kts | 170° |
| 2026-04-21 10:03 | 49.35525 | 0.29522 | 35227 ft | 479 kts | 170° |
| 2026-04-21 10:04 | 49.29069 | 0.32078 | 35212 ft | 479 kts | 169° |
| 2026-04-21 10:04 | 49.22643 | 0.34755 | 35216 ft | 479 kts | 168° |
| 2026-04-21 10:05 | 49.16222 | 0.37508 | 35197 ft | 479 kts | 168° |
| 2026-04-21 10:05 | 49.10880 | 0.39777 | 35198 ft | 479 kts | 169° |
| 2026-04-21 10:06 | 49.04463 | 0.42469 | 35179 ft | 478 kts | 168° |
| 2026-04-21 10:06 | 48.98043 | 0.45140 | 35200 ft | 477 kts | 169° |
| 2026-04-21 10:07 | 48.91628 | 0.47802 | 35188 ft | 478 kts | 169° |
| 2026-04-21 10:07 | 48.85260 | 0.50455 | 35179 ft | 478 kts | 169° |
| 2026-04-21 10:08 | 48.78837 | 0.53123 | 35171 ft | 478 kts | 169° |
| 2026-04-21 10:08 | 48.72404 | 0.55697 | 35162 ft | 477 kts | 170° |
| 2026-04-21 10:09 | 48.65969 | 0.58182 | 35162 ft | 477 kts | 170° |
| 2026-04-21 10:09 | 48.59538 | 0.60680 | 35156 ft | 477 kts | 169° |
| 2026-04-21 10:10 | 48.53115 | 0.63170 | 35157 ft | 476 kts | 169° |
| 2026-04-21 10:10 | 48.46703 | 0.65709 | 35158 ft | 476 kts | 169° |
| 2026-04-21 10:11 | 48.40308 | 0.68332 | 35153 ft | 476 kts | 169° |
| 2026-04-21 10:11 | 48.33916 | 0.70957 | 35160 ft | 476 kts | 169° |
| 2026-04-21 10:12 | 48.27578 | 0.73533 | 35153 ft | 475 kts | 169° |
| 2026-04-21 10:12 | 48.21137 | 0.75440 | 35128 ft | 469 kts | 178° |
| 2026-04-21 10:13 | 48.14662 | 0.76551 | 35135 ft | 468 kts | 178° |
| 2026-04-21 10:13 | 48.08193 | 0.77646 | 35130 ft | 468 kts | 178° |
| 2026-04-21 10:14 | 48.01721 | 0.78738 | 35127 ft | 468 kts | 178° |
| 2026-04-21 10:14 | 47.95249 | 0.79820 | 35117 ft | 468 kts | 178° |
| 2026-04-21 10:15 | 47.88783 | 0.80903 | 35119 ft | 468 kts | 178° |
| 2026-04-21 10:15 | 47.82322 | 0.81984 | 35118 ft | 467 kts | 178° |
| 2026-04-21 10:16 | 47.75858 | 0.83073 | 35114 ft | 467 kts | 178° |
| 2026-04-21 10:16 | 47.69453 | 0.84151 | 35125 ft | 466 kts | 178° |
| 2026-04-21 10:17 | 47.63005 | 0.85223 | 35110 ft | 466 kts | 178° |
| 2026-04-21 10:17 | 47.56547 | 0.86288 | 35096 ft | 466 kts | 178° |
| 2026-04-21 10:18 | 47.50098 | 0.87348 | 35103 ft | 466 kts | 178° |
| 2026-04-21 10:18 | 47.43657 | 0.88410 | 35101 ft | 465 kts | 178° |
| 2026-04-21 10:19 | 47.37218 | 0.89467 | 35083 ft | 465 kts | 178° |
| 2026-04-21 10:19 | 47.30792 | 0.90521 | 35105 ft | 464 kts | 178° |
| 2026-04-21 10:20 | 47.24418 | 0.91563 | 35107 ft | 464 kts | 178° |
| 2026-04-21 10:20 | 47.17996 | 0.92615 | 35096 ft | 464 kts | 178° |
| 2026-04-21 10:21 | 47.11589 | 0.93669 | 35083 ft | 462 kts | 178° |
| 2026-04-21 10:21 | 47.05193 | 0.94713 | 35081 ft | 462 kts | 178° |
| 2026-04-21 10:22 | 46.98811 | 0.95749 | 35081 ft | 461 kts | 178° |
| 2026-04-21 10:22 | 46.92432 | 0.96783 | 35065 ft | 461 kts | 178° |
| 2026-04-21 10:23 | 46.86063 | 0.97808 | 35068 ft | 460 kts | 178° |
| 2026-04-21 10:23 | 46.79732 | 0.98825 | 35062 ft | 460 kts | 178° |
| 2026-04-21 10:24 | 46.73372 | 0.99852 | 35060 ft | 460 kts | 178° |
| 2026-04-21 10:24 | 46.67004 | 1.00881 | 35050 ft | 460 kts | 178° |
| 2026-04-21 10:25 | 46.60646 | 1.01897 | 35046 ft | 460 kts | 178° |
| 2026-04-21 10:25 | 46.54292 | 1.02901 | 35021 ft | 459 kts | 178° |
| 2026-04-21 10:26 | 46.47975 | 1.04539 | 35027 ft | 463 kts | 171° |
| 2026-04-21 10:26 | 46.41700 | 1.06652 | 35036 ft | 462 kts | 171° |
| 2026-04-21 10:27 | 46.35433 | 1.08744 | 35008 ft | 462 kts | 172° |
| 2026-04-21 10:27 | 46.29200 | 1.10812 | 35000 ft | 462 kts | 172° |
| 2026-04-21 10:28 | 46.22930 | 1.12899 | 34997 ft | 463 kts | 172° |
| 2026-04-21 10:28 | 46.16650 | 1.14992 | 35000 ft | 463 kts | 172° |
| 2026-04-21 10:29 | 46.10411 | 1.17055 | 34980 ft | 463 kts | 172° |
| 2026-04-21 10:29 | 46.04086 | 1.19150 | 34985 ft | 464 kts | 172° |
| 2026-04-21 10:30 | 45.97794 | 1.21219 | 34998 ft | 463 kts | 172° |
| 2026-04-21 10:30 | 45.91499 | 1.23277 | 34978 ft | 464 kts | 172° |
| 2026-04-21 10:31 | 45.85206 | 1.25339 | 34985 ft | 464 kts | 172° |
| 2026-04-21 10:31 | 45.78911 | 1.27396 | 34987 ft | 464 kts | 172° |
| 2026-04-21 10:32 | 45.72609 | 1.29453 | 34970 ft | 464 kts | 172° |
| 2026-04-21 10:32 | 45.66352 | 1.31492 | 34944 ft | 465 kts | 172° |
| 2026-04-21 10:33 | 45.60043 | 1.33539 | 34945 ft | 465 kts | 172° |
| 2026-04-21 10:33 | 45.53733 | 1.35583 | 34929 ft | 465 kts | 172° |
| 2026-04-21 10:34 | 45.47423 | 1.37624 | 34930 ft | 465 kts | 172° |
| 2026-04-21 10:34 | 45.41110 | 1.39665 | 34931 ft | 465 kts | 172° |
| 2026-04-21 10:35 | 45.34780 | 1.41702 | 34933 ft | 465 kts | 172° |
| 2026-04-21 10:35 | 45.28490 | 1.43713 | 34928 ft | 466 kts | 172° |
| 2026-04-21 10:36 | 45.22164 | 1.45726 | 34932 ft | 466 kts | 172° |
| 2026-04-21 10:36 | 45.15832 | 1.47754 | 34918 ft | 466 kts | 172° |
| 2026-04-21 10:37 | 45.09504 | 1.49782 | 34930 ft | 466 kts | 172° |
| 2026-04-21 10:37 | 45.03176 | 1.51790 | 34931 ft | 466 kts | 172° |
| 2026-04-21 10:38 | 44.96847 | 1.53785 | 34937 ft | 466 kts | 172° |
| 2026-04-21 10:38 | 44.90561 | 1.55777 | 34942 ft | 466 kts | 172° |
| 2026-04-21 10:39 | 44.84240 | 1.57775 | 34946 ft | 466 kts | 172° |
| 2026-04-21 10:39 | 44.77919 | 1.59767 | 34946 ft | 465 kts | 172° |
| 2026-04-21 10:40 | 44.71590 | 1.61756 | 34943 ft | 465 kts | 172° |
| 2026-04-21 10:40 | 44.65265 | 1.63751 | 34943 ft | 465 kts | 172° |
| 2026-04-21 10:41 | 44.58944 | 1.65740 | 34925 ft | 465 kts | 172° |
| 2026-04-21 10:41 | 44.52630 | 1.67715 | 34936 ft | 464 kts | 172° |
| 2026-04-21 10:42 | 44.46324 | 1.69679 | 34948 ft | 464 kts | 172° |
| 2026-04-21 10:42 | 44.40058 | 1.71623 | 34923 ft | 464 kts | 172° |
| 2026-04-21 10:43 | 44.33765 | 1.73575 | 34941 ft | 463 kts | 172° |
| 2026-04-21 10:43 | 44.27477 | 1.75468 | 34944 ft | 461 kts | 174° |
| 2026-04-21 10:44 | 44.21158 | 1.76930 | 34935 ft | 459 kts | 176° |
| 2026-04-21 10:44 | 44.14884 | 1.78172 | 34942 ft | 458 kts | 176° |
| 2026-04-21 10:45 | 44.08575 | 1.79478 | 34944 ft | 458 kts | 176° |
| 2026-04-21 10:45 | 44.02281 | 1.80867 | 34944 ft | 458 kts | 175° |
| 2026-04-21 10:46 | 43.96044 | 1.82751 | 34925 ft | 463 kts | 164° |
| 2026-04-21 10:46 | 43.90314 | 1.86930 | 34931 ft | 469 kts | 150° |
| 2026-04-21 10:47 | 43.84813 | 1.91815 | 34943 ft | 470 kts | 151° |
| 2026-04-21 10:47 | 43.79328 | 1.96641 | 34920 ft | 470 kts | 151° |
| 2026-04-21 10:48 | 43.73798 | 2.01495 | 34927 ft | 470 kts | 151° |
| 2026-04-21 10:48 | 43.68265 | 2.06358 | 34930 ft | 471 kts | 151° |
| 2026-04-21 10:49 | 43.62734 | 2.11210 | 34931 ft | 471 kts | 151° |
| 2026-04-21 10:49 | 43.57195 | 2.16048 | 34794 ft | 471 kts | 151° |
| 2026-04-21 10:49 | 43.54428 | 2.18466 | 34545 ft | 471 kts | 151° |
| 2026-04-21 10:50 | 43.52596 | 2.20065 | 34387 ft | 471 kts | 151° |
| 2026-04-21 10:50 | 43.48897 | 2.23295 | 34067 ft | 471 kts | 151° |
| 2026-04-21 10:50 | 43.46159 | 2.25686 | 33594 ft | 473 kts | 151° |
| 2026-04-21 10:50 | 43.43315 | 2.28159 | 32494 ft | 481 kts | 151° |
| 2026-04-21 10:51 | 43.40504 | 2.30597 | 31568 ft | 486 kts | 150° |
| 2026-04-21 10:51 | 43.37637 | 2.33083 | 30638 ft | 486 kts | 150° |
| 2026-04-21 10:51 | 43.34794 | 2.35550 | 29485 ft | 482 kts | 150° |
| 2026-04-21 10:51 | 43.31980 | 2.37993 | 28416 ft | 474 kts | 150° |
| 2026-04-21 10:52 | 43.29228 | 2.40378 | 27826 ft | 456 kts | 150° |
| 2026-04-21 10:52 | 43.26582 | 2.42669 | 27178 ft | 443 kts | 150° |
| 2026-04-21 10:52 | 43.23983 | 2.44912 | 26545 ft | 441 kts | 150° |
| 2026-04-21 10:52 | 43.21392 | 2.47141 | 25933 ft | 438 kts | 150° |
| 2026-04-21 10:53 | 43.18819 | 2.49348 | 25330 ft | 437 kts | 150° |
| 2026-04-21 10:53 | 43.16244 | 2.51555 | 24717 ft | 436 kts | 150° |
| 2026-04-21 10:53 | 43.13711 | 2.53728 | 24120 ft | 435 kts | 150° |
| 2026-04-21 10:53 | 43.11151 | 2.55929 | 23511 ft | 434 kts | 149° |
| 2026-04-21 10:54 | 43.08604 | 2.58119 | 22859 ft | 431 kts | 149° |
| 2026-04-21 10:54 | 43.06075 | 2.60295 | 22308 ft | 427 kts | 150° |
| 2026-04-21 10:54 | 43.04415 | 2.61721 | 21941 ft | 424 kts | 150° |
| 2026-04-21 10:54 | 43.01926 | 2.63851 | 21411 ft | 419 kts | 150° |
| 2026-04-21 10:55 | 42.99466 | 2.65948 | 20895 ft | 414 kts | 150° |
| 2026-04-21 10:55 | 42.97035 | 2.68019 | 20419 ft | 410 kts | 150° |
| 2026-04-21 10:55 | 42.94617 | 2.70076 | 19913 ft | 413 kts | 150° |
| 2026-04-21 10:55 | 42.92163 | 2.72165 | 19433 ft | 415 kts | 150° |
| 2026-04-21 10:56 | 42.89716 | 2.74249 | 18945 ft | 414 kts | 150° |
| 2026-04-21 10:56 | 42.87281 | 2.76322 | 18490 ft | 411 kts | 150° |
| 2026-04-21 10:56 | 42.84868 | 2.78379 | 17976 ft | 407 kts | 150° |
| 2026-04-21 10:56 | 42.82469 | 2.80421 | 17507 ft | 406 kts | 150° |
| 2026-04-21 10:57 | 42.80073 | 2.82451 | 17057 ft | 404 kts | 150° |
| 2026-04-21 10:57 | 42.77695 | 2.84467 | 16576 ft | 400 kts | 150° |
| 2026-04-21 10:57 | 42.75863 | 2.85979 | 16196 ft | 397 kts | 154° |
| 2026-04-21 10:57 | 42.73329 | 2.87437 | 15717 ft | 391 kts | 165° |
| 2026-04-21 10:58 | 42.70742 | 2.88543 | 15217 ft | 389 kts | 165° |
| 2026-04-21 10:58 | 42.68204 | 2.89637 | 14725 ft | 386 kts | 165° |
| 2026-04-21 10:58 | 42.65646 | 2.90744 | 14221 ft | 385 kts | 165° |
| 2026-04-21 10:58 | 42.63099 | 2.91847 | 13703 ft | 383 kts | 165° |
| 2026-04-21 10:59 | 42.61577 | 2.92506 | 13352 ft | 383 kts | 164° |
| 2026-04-21 10:59 | 42.59050 | 2.93588 | 12843 ft | 380 kts | 164° |
| 2026-04-21 10:59 | 42.56531 | 2.94668 | 12304 ft | 378 kts | 164° |
| 2026-04-21 10:59 | 42.54032 | 2.95741 | 11782 ft | 375 kts | 164° |
| 2026-04-21 11:00 | 42.51548 | 2.96808 | 11234 ft | 374 kts | 165° |
| 2026-04-21 11:00 | 42.49678 | 2.97438 | 10846 ft | 370 kts | 173° |
| 2026-04-21 11:00 | 42.47852 | 2.97627 | 10615 ft | 361 kts | 183° |
| 2026-04-21 11:00 | 42.45417 | 2.97254 | 10487 ft | 344 kts | 195° |
| 2026-04-21 11:01 | 42.43506 | 2.96510 | 10365 ft | 329 kts | 200° |
| 2026-04-21 11:01 | 42.41350 | 2.95638 | 10239 ft | 317 kts | 199° |
| 2026-04-21 11:01 | 42.39266 | 2.94842 | 10118 ft | 306 kts | 198° |
| 2026-04-21 11:02 | 42.35272 | 2.93352 | 9742 ft | 291 kts | 198° |
| 2026-04-21 11:02 | 42.33323 | 2.92621 | 9476 ft | 290 kts | 198° |
| 2026-04-21 11:02 | 42.31383 | 2.91890 | 9125 ft | 288 kts | 198° |
| 2026-04-21 11:02 | 42.29462 | 2.91153 | 8762 ft | 286 kts | 198° |
| 2026-04-21 11:03 | 42.27561 | 2.90375 | 8335 ft | 286 kts | 200° |
| 2026-04-21 11:03 | 42.25700 | 2.89603 | 8035 ft | 281 kts | 198° |
| 2026-04-21 11:03 | 42.24664 | 2.89201 | 7844 ft | 279 kts | 198° |
| 2026-04-21 11:03 | 42.22789 | 2.88463 | 7283 ft | 285 kts | 197° |
| 2026-04-21 11:04 | 42.20836 | 2.87741 | 6541 ft | 297 kts | 197° |
| 2026-04-21 11:04 | 42.18839 | 2.86986 | 5934 ft | 294 kts | 197° |
| 2026-04-21 11:04 | 42.16918 | 2.86251 | 5537 ft | 279 kts | 198° |
| 2026-04-21 11:04 | 42.15095 | 2.85557 | 5168 ft | 265 kts | 197° |
| 2026-04-21 11:05 | 42.13372 | 2.84900 | 4839 ft | 250 kts | 197° |
| 2026-04-21 11:05 | 42.11696 | 2.84258 | 4517 ft | 250 kts | 197° |
| 2026-04-21 11:05 | 42.10026 | 2.83620 | 4186 ft | 249 kts | 197° |
| 2026-04-21 11:05 | 42.08695 | 2.83125 | 3916 ft | 250 kts | 197° |
| 2026-04-21 11:06 | 42.07019 | 2.82485 | 3589 ft | 250 kts | 197° |
| 2026-04-21 11:06 | 42.05356 | 2.81846 | 3255 ft | 246 kts | 197° |
| 2026-04-21 11:06 | 42.03743 | 2.81232 | 2941 ft | 233 kts | 197° |
| 2026-04-21 11:06 | 42.02316 | 2.80691 | 2679 ft | 213 kts | 196° |
| 2026-04-21 11:07 | 42.00924 | 2.80165 | 2406 ft | 199 kts | 195° |
| 2026-04-21 11:07 | 41.99655 | 2.79681 | 2135 ft | 182 kts | 194° |
| 2026-04-21 11:07 | 41.98498 | 2.79240 | 1920 ft | 163 kts | 195° |
| 2026-04-21 11:07 | 41.97455 | 2.78846 | 1709 ft | 151 kts | 192° |
| 2026-04-21 11:08 | 41.96455 | 2.78466 | 1502 ft | 146 kts | 194° |
| 2026-04-21 11:08 | 41.95466 | 2.78093 | 1322 ft | 149 kts | 194° |
| 2026-04-21 11:08 | 41.94465 | 2.77723 | 1099 ft | 149 kts | 196° |
| 2026-04-21 11:08 | 41.93473 | 2.77337 | 916 ft | 147 kts | 196° |
| 2026-04-21 11:09 | 41.92496 | 2.76959 | 718 ft | 145 kts | 195° |
| 2026-04-21 11:09 | 41.91521 | 2.76597 | 535 ft | 146 kts | 195° |
| 2026-04-21 11:09 | 41.90585 | 2.76243 | 458 ft | 122 kts | 196° |
| 2026-04-21 11:09 | 41.90047 | 2.76038 | 438 ft | 50 kts | 195° |
| 2026-04-21 11:10 | 41.89719 | 2.75915 | 420 ft | 48 kts | 196° |
| 2026-04-21 11:10 | 41.89530 | 2.75876 | 411 ft | 11 kts | 134° |
| 2026-04-21 11:10 | 41.89537 | 2.75978 | 407 ft | 12 kts | 58° |
| 2026-04-21 11:10 | 41.89571 | 2.76054 | 411 ft | 10 kts | 59° |
| 2026-04-21 11:11 | 41.89615 | 2.76104 | 414 ft | 7 kts | 21° |
| 2026-04-21 11:11 | 41.89688 | 2.76131 | 417 ft | 14 kts | 15° |
| 2026-04-21 11:11 | 41.89804 | 2.76176 | 423 ft | 21 kts | 16° |
| 2026-04-21 11:11 | 41.89902 | 2.76252 | 422 ft | 13 kts | 89° |
| 2026-04-21 11:12 | 41.89875 | 2.76376 | 416 ft | 15 kts | 110° |
| 2026-04-21 11:12 | 41.89853 | 2.76478 | 417 ft | 3 kts | 106° |
| 2026-04-21 11:12 | 41.89853 | 2.76479 | 420 ft | 0 kts | 106° |